Time;durP1;ratioP1;P1;durP2;ratioP2;P2;SDS_P1;SDS_P2;PMS_P1;PMS_P2;Temp;Humidity;BMP_temperature;BMP_pressure;BME280_temperature;BME280_humidity;BME280_pressure;Samples;Min_cycle;Max_cycle;Signal;HPM_P1;HPM_P2
2021/05/15 00:02:12;;;;;;;9.37;8.50;;;;;;;10.48;79.42;99642.75;5083134;28;20626;-76
2021/05/15 00:04:38;;;;;;;9.20;8.50;;;;;;;10.52;79.23;99640.91;5082043;28;20210;-74
2021/05/15 00:07:04;;;;;;;8.87;8.27;;;;;;;10.60;79.13;99641.53;5083501;28;20205;-75
2021/05/15 00:09:30;;;;;;;9.57;8.87;;;;;;;10.64;78.64;99637.06;5082568;28;20224;-76
2021/05/15 00:11:57;;;;;;;9.73;9.03;;;;;;;10.66;78.80;99643.97;5082973;28;21024;-74
2021/05/15 00:14:23;;;;;;;10.47;9.77;;;;;;;10.60;79.04;99640.69;5082567;28;20221;-76
2021/05/15 00:16:49;;;;;;;11.30;10.40;;;;;;;10.57;79.03;99636.41;5082357;28;20831;-76
2021/05/15 00:19:15;;;;;;;11.20;10.40;;;;;;;10.44;79.70;99638.53;5081177;28;20235;-74
2021/05/15 00:21:41;;;;;;;11.37;10.47;;;;;;;10.42;79.50;99634.28;5082792;28;20206;-75
2021/05/15 00:24:08;;;;;;;11.13;10.33;;;;;;;10.40;79.97;99636.09;5082407;28;20270;-75
2021/05/15 00:26:34;;;;;;;11.10;10.30;;;;;;;10.40;79.87;99634.31;5082923;28;20235;-76
2021/05/15 00:29:00;;;;;;;10.70;9.90;;;;;;;10.44;79.62;99638.53;5082134;28;20228;-76
2021/05/15 00:31:26;;;;;;;14.37;13.27;;;;;;;9.94;80.60;99639.16;5082285;28;20508;-74
2021/05/15 00:33:52;;;;;;;15.03;13.93;;;;;;;9.30;83.41;99646.16;5081235;28;20207;-76
2021/05/15 00:36:18;;;;;;;16.20;14.90;;;;;;;8.84;84.86;99650.81;5082911;28;20230;-76
2021/05/15 00:38:44;;;;;;;15.97;14.87;;;;;;;8.86;84.98;99645.53;5082589;28;20738;-75
2021/05/15 00:41:10;;;;;;;15.00;13.80;;;;;;;9.02;85.60;99644.28;5082521;28;20215;-75
2021/05/15 00:43:36;;;;;;;13.97;12.97;;;;;;;9.30;84.66;99636.59;5080923;28;20265;-76
2021/05/15 00:46:03;;;;;;;13.70;12.50;;;;;;;9.51;84.09;99637.78;5082014;28;20684;-75
2021/05/15 00:48:29;;;;;;;13.07;12.03;;;;;;;9.68;83.44;99628.63;5081788;28;20272;-76
2021/05/15 00:50:55;;;;;;;12.83;12.03;;;;;;;9.76;82.88;99629.25;5081901;28;20348;-73
2021/05/15 00:53:21;;;;;;;13.33;12.27;;;;;;;9.86;82.49;99625.47;5081930;28;20254;-76
2021/05/15 00:55:46;;;;;;;13.67;12.77;;;;;;;9.80;82.34;99623.06;5082699;28;20203;-76
2021/05/15 00:58:12;;;;;;;14.53;13.53;;;;;;;9.76;83.32;99636.22;5082141;28;20801;-73
2021/05/15 01:00:38;;;;;;;18.00;16.63;;;;;;;9.42;84.35;99638.03;5081403;28;20532;-76
2021/05/15 01:03:07;;;;;;;15.40;14.30;;;;;;;9.57;84.19;99633.28;5081343;28;20227;-74
2021/05/15 01:05:33;;;;;;;14.50;13.40;;;;;;;9.61;84.13;99622.72;5081369;28;20238;-75
2021/05/15 01:07:58;;;;;;;13.20;12.20;;;;;;;9.69;83.48;99618.16;5082696;28;20643;-76
2021/05/15 01:10:25;;;;;;;15.70;14.50;;;;;;;9.72;83.45;99619.81;5081285;28;20202;-77
2021/05/15 01:12:54;;;;;;;15.30;14.00;;;;;;;9.83;83.49;99617.78;5081954;28;20230;-73
2021/05/15 01:15:22;;;;;;;14.40;13.33;;;;;;;9.91;83.12;99622.72;5081953;28;20207;-75
2021/05/15 01:17:49;;;;;;;14.10;13.00;;;;;;;10.01;82.69;99612.88;5081594;28;20269;-76
2021/05/15 01:20:16;;;;;;;14.13;13.13;;;;;;;10.06;83.27;99613.63;5081438;28;20770;-74
2021/05/15 01:22:43;;;;;;;13.03;12.13;;;;;;;10.09;82.67;99617.00;5081624;28;20246;-73
2021/05/15 01:25:10;;;;;;;12.93;11.87;;;;;;;10.09;82.99;99614.38;5082074;28;20231;-75
2021/05/15 01:27:36;;;;;;;12.47;11.50;;;;;;;10.16;82.94;99608.97;5081871;28;20336;-75
2021/05/15 01:30:03;;;;;;;12.47;11.57;;;;;;;10.20;82.53;99605.38;5081088;28;20428;-74
2021/05/15 01:32:29;;;;;;;12.97;11.87;;;;;;;10.24;82.50;99600.00;5082410;28;20236;-73
2021/05/15 01:34:54;;;;;;;12.70;11.80;;;;;;;10.25;82.27;99601.72;5081187;28;20215;-76
2021/05/15 01:37:20;;;;;;;12.67;11.67;;;;;;;10.29;82.28;99600.72;5082179;28;20903;-75
2021/05/15 01:39:47;;;;;;;12.50;11.60;;;;;;;10.28;82.51;99596.41;5081342;28;20781;-76
2021/05/15 01:42:13;;;;;;;12.30;11.30;;;;;;;10.30;82.28;99594.63;5081348;28;20237;-75
2021/05/15 01:44:39;;;;;;;12.70;11.80;;;;;;;10.25;81.95;99595.66;5080900;28;20238;-74
2021/05/15 01:47:05;;;;;;;12.73;11.63;;;;;;;10.24;81.63;99597.41;5081820;28;20208;-75
2021/05/15 01:49:31;;;;;;;12.00;11.20;;;;;;;10.23;81.77;99587.88;5081300;28;20499;-74
2021/05/15 01:51:56;;;;;;;12.60;11.50;;;;;;;10.28;81.37;99592.94;5081416;28;20207;-75
2021/05/15 01:54:22;;;;;;;12.10;11.30;;;;;;;10.28;81.53;99587.72;5083474;28;20210;-75
2021/05/15 01:56:49;;;;;;;11.97;11.17;;;;;;;10.24;81.58;99579.13;5085174;28;20266;-74
2021/05/15 01:59:15;;;;;;;11.80;10.90;;;;;;;10.24;81.18;99584.34;5085254;28;20354;-76
2021/05/15 02:01:41;;;;;;;11.50;10.50;;;;;;;10.24;81.23;99579.13;5085720;28;20298;-74
2021/05/15 02:04:06;;;;;;;12.37;11.47;;;;;;;10.25;81.35;99570.44;5084727;28;20680;-75
2021/05/15 02:06:32;;;;;;;11.57;10.67;;;;;;;10.21;81.00;99573.16;5085656;28;20205;-75
2021/05/15 02:08:58;;;;;;;11.33;10.43;;;;;;;10.19;79.96;99574.97;5085008;28;20487;-73
2021/05/15 02:11:24;;;;;;;10.93;10.03;;;;;;;10.05;80.04;99572.78;5085368;28;20250;-75
2021/05/15 02:13:51;;;;;;;12.00;11.07;;;;;;;9.86;80.16;99569.91;5084767;28;20306;-76
2021/05/15 02:16:18;;;;;;;11.53;10.73;;;;;;;9.76;80.91;99577.13;5084747;28;20609;-76
2021/05/15 02:18:44;;;;;;;11.40;10.60;;;;;;;9.79;80.54;99573.56;5085026;28;20257;-75
2021/05/15 02:21:10;;;;;;;11.27;10.37;;;;;;;9.73;80.58;99574.59;5084647;28;20278;-76
2021/05/15 02:23:36;;;;;;;12.53;11.30;;;;;;;9.76;80.46;99571.94;5084584;28;20218;-74
2021/05/15 02:26:03;;;;;;;11.43;10.60;;;;;;;9.79;80.25;99560.53;5084401;28;21073;-76
2021/05/15 02:28:30;;;;;;;11.73;10.83;;;;;;;9.67;81.08;99566.97;5084016;28;20733;-76
2021/05/15 02:30:57;;;;;;;11.83;10.83;;;;;;;9.71;81.55;99569.47;5084339;28;20235;-76
2021/05/15 02:33:23;;;;;;;12.83;11.93;;;;;;;9.77;81.30;99568.41;5084148;28;20243;-76
2021/05/15 02:35:48;;;;;;;12.17;11.33;;;;;;;9.70;80.99;99559.06;5084632;28;20671;-75
2021/05/15 02:38:16;;;;;;;12.40;11.50;;;;;;;9.65;80.80;99558.34;5084641;28;20327;-77
2021/05/15 02:40:42;;;;;;;11.23;10.43;;;;;;;9.64;80.88;99562.72;5083896;28;20251;-77
2021/05/15 02:43:08;;;;;;;12.63;11.63;;;;;;;9.68;81.51;99563.47;5083988;28;20243;-77
2021/05/15 02:45:35;;;;;;;12.60;11.60;;;;;;;9.70;81.53;99567.75;5084119;28;20217;-77
2021/05/15 02:48:03;;;;;;;13.63;12.63;;;;;;;9.77;81.47;99554.53;5084056;28;20252;-77
2021/05/15 02:50:29;;;;;;;13.03;12.13;;;;;;;9.78;81.14;99557.09;5083556;28;20202;-77
2021/05/15 02:52:55;;;;;;;14.93;13.83;;;;;;;9.44;82.36;99560.69;5083582;28;20231;-75
2021/05/15 02:55:23;;;;;;;15.53;14.23;;;;;;;9.26;83.35;99563.81;5084208;28;20234;-77
2021/05/15 02:57:50;;;;;;;16.03;14.73;;;;;;;9.05;84.28;99566.09;5083467;28;20727;-77
2021/05/15 03:00:18;;;;;;;15.87;14.70;;;;;;;8.95;84.59;99562.03;5083416;28;20583;-75
2021/05/15 03:02:44;;;;;;;16.70;15.40;;;;;;;8.89;85.41;99564.78;5083619;28;20244;-74
2021/05/15 03:05:14;;;;;;;16.73;15.37;;;;;;;8.88;85.25;99563.06;5082562;28;20221;-77
2021/05/15 03:07:40;;;;;;;16.23;14.93;;;;;;;8.92;85.39;99565.56;5083854;28;20239;-77
2021/05/15 03:10:09;;;;;;;13.83;12.83;;;;;;;9.00;83.81;99564.50;5083560;28;20224;-76
2021/05/15 03:12:35;;;;;;;14.10;13.00;;;;;;;9.01;83.21;99566.22;5083585;28;20243;-74
2021/05/15 03:15:02;;;;;;;11.90;10.90;;;;;;;9.15;82.10;99567.53;5083582;28;20213;-78
2021/05/15 03:17:28;;;;;;;12.13;11.23;;;;;;;9.14;81.38;99557.19;5082969;28;20644;-77
2021/05/15 03:19:54;;;;;;;12.40;11.37;;;;;;;9.20;81.39;99570.03;5082865;28;20370;-75
2021/05/15 03:22:22;;;;;;;12.73;11.83;;;;;;;9.25;81.64;99552.53;5083105;28;20207;-78
2021/05/15 03:24:48;;;;;;;14.07;12.97;;;;;;;9.26;81.44;99556.00;5083171;28;20207;-77
2021/05/15 03:27:14;;;;;;;13.67;12.67;;;;;;;9.19;81.90;99560.50;5083650;28;20207;-74
2021/05/15 03:29:41;;;;;;;12.97;11.97;;;;;;;9.18;81.60;99556.22;5083317;28;20265;-78
2021/05/15 03:32:07;;;;;;;13.17;12.10;;;;;;;9.27;81.26;99558.53;5083214;28;20220;-76
2021/05/15 03:34:33;;;;;;;12.47;11.57;;;;;;;9.26;81.23;99559.44;5082314;28;20203;-77
2021/05/15 03:36:58;;;;;;;13.03;12.03;;;;;;;9.29;80.81;99564.56;5083420;28;20604;-77
2021/05/15 03:39:25;;;;;;;13.20;12.20;;;;;;;9.30;81.18;99560.22;5083218;28;20258;-76
2021/05/15 03:41:51;;;;;;;13.47;12.47;;;;;;;9.26;80.66;99556.84;5083132;28;20232;-74
2021/05/15 03:44:17;;;;;;;12.60;11.60;;;;;;;9.31;80.52;99556.72;5082961;28;20297;-77
2021/05/15 03:46:43;;;;;;;12.33;11.43;;;;;;;9.32;80.42;99558.44;5082914;28;20245;-76
2021/05/15 03:49:09;;;;;;;13.67;12.53;;;;;;;9.24;80.66;99555.19;5082709;28;20223;-77
2021/05/15 03:51:35;;;;;;;12.93;12.03;;;;;;;9.24;80.67;99547.38;5082353;28;20267;-78
2021/05/15 03:54:01;;;;;;;13.63;12.63;;;;;;;9.19;80.64;99550.09;5083133;28;20210;-75
2021/05/15 03:56:28;;;;;;;14.03;13.03;;;;;;;9.21;80.82;99555.25;5083238;28;20228;-77
2021/05/15 03:58:54;;;;;;;13.70;12.70;;;;;;;9.08;80.86;99547.81;5082711;28;20236;-78
2021/05/15 04:01:20;;;;;;;13.30;12.30;;;;;;;9.04;81.30;99551.38;5083448;28;20202;-75
2021/05/15 04:03:46;;;;;;;14.30;13.20;;;;;;;8.98;81.58;99551.56;5082248;28;20244;-77
2021/05/15 04:06:12;;;;;;;12.33;11.43;;;;;;;9.02;81.69;99552.28;5082668;28;20225;-76
2021/05/15 04:08:38;;;;;;;12.27;11.47;;;;;;;9.07;81.50;99548.69;5083188;28;20516;-77
2021/05/15 04:11:04;;;;;;;14.67;13.67;;;;;;;9.10;81.69;99552.97;5082787;28;20334;-76
2021/05/15 04:13:35;;;;;;;14.57;13.43;;;;;;;9.03;81.94;99551.41;5082870;28;20414;-75
2021/05/15 04:16:04;;;;;;;13.67;11.90;;;;;;;9.08;81.75;99557.38;5082382;28;20212;-77
2021/05/15 04:18:30;;;;;;;15.00;13.83;;;;;;;9.15;82.44;99553.69;5081802;28;20231;-74
2021/05/15 04:20:57;;;;;;;13.43;12.50;;;;;;;9.21;82.22;99560.47;5082618;28;20676;-77
2021/05/15 04:23:23;;;;;;;14.40;13.23;;;;;;;9.24;81.84;99558.66;5081992;28;20275;-77
2021/05/15 04:25:50;;;;;;;15.30;14.03;;;;;;;9.19;81.98;99555.31;5082625;28;20213;-74
2021/05/15 04:28:17;;;;;;;13.80;12.70;;;;;;;9.13;82.74;99556.31;5082713;28;20214;-77
2021/05/15 04:30:44;;;;;;;15.33;14.00;;;;;;;9.19;82.73;99544.88;5082618;28;20215;-77
2021/05/15 04:33:10;;;;;;;15.13;14.03;;;;;;;9.31;82.74;99544.53;5081654;28;20202;-75
2021/05/15 04:35:36;;;;;;;14.80;13.70;;;;;;;9.31;83.08;99541.09;5083157;28;20248;-76
2021/05/15 04:38:03;;;;;;;14.93;13.83;;;;;;;9.33;82.86;99547.94;5082876;28;20235;-76
2021/05/15 04:40:29;;;;;;;15.33;14.23;;;;;;;9.39;82.99;99552.13;5082188;28;20204;-76
2021/05/15 04:42:55;;;;;;;16.30;14.83;;;;;;;9.49;82.74;99542.31;5082510;28;20229;-76
2021/05/15 04:45:21;;;;;;;15.73;14.40;;;;;;;9.64;82.51;99546.22;5082034;28;20689;-76
2021/05/15 04:47:48;;;;;;;14.90;13.70;;;;;;;9.75;82.35;99541.53;5082195;28;20648;-76
2021/05/15 04:50:14;;;;;;;14.50;13.20;;;;;;;9.82;81.70;99539.63;5081973;28;20211;-76
2021/05/15 04:52:40;;;;;;;14.20;13.20;;;;;;;9.88;81.71;99539.44;5081430;28;20725;-74
2021/05/15 04:55:08;;;;;;;15.10;13.83;;;;;;;9.95;81.57;99546.16;5082184;28;20257;-74
2021/05/15 04:57:34;;;;;;;13.83;12.83;;;;;;;9.96;82.05;99544.41;5082407;28;20257;-74
2021/05/15 05:00:00;;;;;;;14.53;13.53;;;;;;;10.03;82.26;99546.78;5081336;28;20243;-77
2021/05/15 05:02:26;;;;;;;14.23;13.23;;;;;;;10.11;81.41;99546.56;5081725;28;20238;-77
2021/05/15 05:04:53;;;;;;;14.47;13.37;;;;;;;10.17;81.65;99548.97;5081394;28;20211;-77
2021/05/15 05:07:19;;;;;;;13.93;12.63;;;;;;;10.21;81.83;99540.13;5082474;28;20233;-77
2021/05/15 05:09:45;;;;;;;14.53;13.43;;;;;;;10.22;82.06;99543.59;5081972;28;20252;-74
2021/05/15 05:12:11;;;;;;;15.13;14.03;;;;;;;10.19;82.77;99543.66;5082306;28;20753;-77
2021/05/15 05:14:37;;;;;;;14.87;13.87;;;;;;;10.33;82.50;99544.13;5081299;28;20515;-75
2021/05/15 05:17:04;;;;;;;16.10;15.00;;;;;;;10.42;82.60;99543.81;5081658;28;20230;-77
2021/05/15 05:19:29;;;;;;;15.30;14.13;;;;;;;10.32;83.49;99542.41;5081583;28;20249;-77
2021/05/15 05:21:56;;;;;;;16.13;15.03;;;;;;;10.42;83.48;99543.81;5081535;28;20208;-76
2021/05/15 05:24:22;;;;;;;16.00;14.90;;;;;;;10.52;83.70;99536.53;5082363;28;20690;-76
2021/05/15 05:26:48;;;;;;;17.03;15.83;;;;;;;10.52;83.94;99532.19;5081341;28;20214;-77
2021/05/15 05:29:14;;;;;;;16.57;15.37;;;;;;;10.57;83.97;99539.03;5082950;28;20231;-74
2021/05/15 05:31:43;;;;;;;16.07;14.87;;;;;;;10.70;83.42;99533.34;5086034;28;20654;-77
2021/05/15 05:34:09;;;;;;;15.17;14.17;;;;;;;10.86;82.77;99533.66;5085859;28;20235;-77
2021/05/15 05:36:37;;;;;;;16.50;15.23;;;;;;;10.98;82.74;99534.13;5085871;28;22542;-75
2021/05/15 05:39:09;;;;;;;15.93;14.83;;;;;;;11.12;82.21;99526.66;5085637;28;20707;-75
2021/05/15 05:41:35;;;;;;;14.90;13.90;;;;;;;11.23;81.71;99524.50;5085588;28;20213;-76
2021/05/15 05:44:01;;;;;;;14.47;13.57;;;;;;;11.30;81.61;99526.00;5085317;28;20588;-77
2021/05/15 05:46:27;;;;;;;17.13;15.90;;;;;;;11.24;83.01;99531.44;5085763;28;20202;-76
2021/05/15 05:48:53;;;;;;;17.90;16.60;;;;;;;11.30;83.29;99528.59;5084961;28;20230;-75
2021/05/15 05:51:19;;;;;;;17.37;16.17;;;;;;;11.15;83.82;99536.13;5085584;28;20287;-77
2021/05/15 05:53:45;;;;;;;16.90;15.80;;;;;;;11.24;83.69;99541.03;5084709;28;20266;-76
2021/05/15 05:56:11;;;;;;;18.70;16.87;;;;;;;10.89;84.32;99543.13;5085367;28;20221;-76
2021/05/15 05:58:37;;;;;;;18.27;16.97;;;;;;;10.82;84.47;99549.47;5085451;28;20289;-77
2021/05/15 06:01:03;;;;;;;19.30;17.90;;;;;;;10.76;84.63;99549.69;5085471;28;20650;-75
2021/05/15 06:03:29;;;;;;;19.17;17.87;;;;;;;10.81;84.63;99539.94;5084519;28;20209;-76
2021/05/15 06:05:55;;;;;;;18.07;16.87;;;;;;;10.77;84.63;99541.78;5085370;28;20204;-76
2021/05/15 06:08:21;;;;;;;17.87;16.50;;;;;;;10.86;84.60;99541.50;5085860;28;20714;-75
2021/05/15 06:10:47;;;;;;;17.47;16.27;;;;;;;11.10;83.86;99541.53;5085423;28;20324;-77
2021/05/15 06:13:14;;;;;;;16.97;15.77;;;;;;;11.28;83.70;99542.63;5084358;28;20269;-76
2021/05/15 06:15:40;;;;;;;14.30;13.23;;;;;;;11.42;82.06;99542.13;5084396;28;20210;-74
2021/05/15 06:18:06;;;;;;;13.77;12.77;;;;;;;11.36;80.41;99547.56;5084918;28;20759;-77
2021/05/15 06:20:33;;;;;;;14.63;13.47;;;;;;;11.44;80.62;99542.94;5084647;28;20224;-73
2021/05/15 06:22:59;;;;;;;13.30;12.37;;;;;;;11.57;80.51;99543.31;5084593;28;20627;-74
2021/05/15 06:25:25;;;;;;;14.83;13.53;;;;;;;11.32;80.93;99547.69;5084922;28;20241;-73
2021/05/15 06:27:51;;;;;;;15.97;14.80;;;;;;;11.27;82.22;99549.59;5084143;28;20311;-75
2021/05/15 06:30:19;;;;;;;15.23;14.23;;;;;;;11.44;82.50;99545.53;5085073;28;20240;-77
2021/05/15 06:32:44;;;;;;;15.33;14.33;;;;;;;11.50;82.26;99535.69;5084144;28;20249;-77
2021/05/15 06:35:11;;;;;;;13.73;12.73;;;;;;;11.53;81.60;99537.34;5084314;28;20213;-73
2021/05/15 06:37:38;;;;;;;12.27;11.40;;;;;;;11.78;81.95;99536.44;5084567;28;20613;-75
2021/05/15 06:40:05;;;;;;;6.83;6.43;;;;;;;11.85;78.38;99528.28;5083274;28;20210;-75
2021/05/15 06:42:31;;;;;;;4.87;4.57;;;;;;;11.96;76.75;99527.88;5084496;28;20650;-76
2021/05/15 06:44:57;;;;;;;4.70;4.30;;;;;;;12.03;76.43;99523.25;5084216;28;20267;-77
2021/05/15 06:47:24;;;;;;;4.00;3.70;;;;;;;12.06;75.24;99525.75;5084451;28;20998;-76
2021/05/15 06:49:50;;;;;;;4.10;3.80;;;;;;;12.08;74.60;99531.78;5084010;28;20596;-75
2021/05/15 06:52:17;;;;;;;2.80;2.67;;;;;;;12.17;74.42;99523.59;5084681;28;20205;-75
2021/05/15 06:54:43;;;;;;;3.10;2.90;;;;;;;12.13;74.29;99524.63;5084252;28;20215;-76
2021/05/15 06:57:09;;;;;;;3.10;2.90;;;;;;;12.20;73.79;99514.75;5084369;28;20287;-74
2021/05/15 06:59:35;;;;;;;2.37;2.27;;;;;;;12.31;74.98;99518.63;5084096;28;20238;-77
2021/05/15 07:02:01;;;;;;;2.93;2.73;;;;;;;12.35;74.31;99524.59;5084577;28;20297;-76
2021/05/15 07:04:27;;;;;;;3.30;2.20;;;;;;;12.28;71.93;99521.34;5083240;28;20747;-77
2021/05/15 07:06:53;;;;;;;2.17;2.00;;;;;;;12.26;72.85;99523.19;5082570;28;20205;-77
2021/05/15 07:09:19;;;;;;;2.10;2.00;;;;;;;12.30;72.30;99521.31;5084235;28;20235;-77
2021/05/15 07:11:45;;;;;;;1.90;1.80;;;;;;;12.29;72.40;99517.00;5084549;28;20208;-76
2021/05/15 07:14:11;;;;;;;2.10;1.90;;;;;;;12.35;72.04;99518.50;5082579;28;20209;-75
2021/05/15 07:16:37;;;;;;;1.83;1.73;;;;;;;12.28;70.65;99510.88;5082219;28;20244;-75
2021/05/15 07:19:03;;;;;;;2.10;2.00;;;;;;;12.24;70.84;99508.47;5081277;28;20233;-75
2021/05/15 07:21:30;;;;;;;2.83;1.70;;;;;;;12.30;71.84;99510.84;5082713;28;20206;-76
2021/05/15 07:23:56;;;;;;;2.33;1.73;;;;;;;12.39;71.25;99507.84;5081495;28;20298;-72
2021/05/15 07:26:22;;;;;;;3.10;2.10;;;;;;;12.48;71.50;99502.22;5082406;28;20238;-75
2021/05/15 07:28:48;;;;;;;1.80;1.70;;;;;;;12.57;71.08;99505.38;5078854;28;20602;-73
2021/05/15 07:31:13;;;;;;;2.20;1.73;;;;;;;12.54;70.03;99503.72;5078377;28;20563;-74
2021/05/15 07:33:39;;;;;;;1.90;1.77;;;;;;;12.56;70.43;99504.50;5081789;28;20210;-74
2021/05/15 07:36:05;;;;;;;1.87;1.40;;;;;;;12.78;70.27;99496.59;5077593;28;20293;-74
2021/05/15 07:38:34;;;;;;;1.40;1.30;;;;;;;13.00;70.59;99495.66;5082330;28;20225;-75
2021/05/15 07:41:00;;;;;;;1.73;1.63;;;;;;;12.93;67.61;99502.09;5082184;28;20210;-74
2021/05/15 07:43:26;;;;;;;2.33;1.40;;;;;;;13.01;68.95;99490.34;5080702;28;20222;-74
2021/05/15 07:45:53;;;;;;;1.83;1.63;;;;;;;13.07;67.97;99495.31;5076186;28;20662;-75
2021/05/15 07:48:28;;;;;;;1.73;1.50;;;;;;;13.19;70.69;99490.47;5082653;28;20711;-75
2021/05/15 07:50:54;;;;;;;1.90;1.67;;;;;;;13.37;69.00;99491.44;5082304;28;20199;-74
2021/05/15 07:53:20;;;;;;;1.57;1.47;;;;;;;13.32;68.33;99491.66;5082398;28;20208;-77
2021/05/15 07:55:47;;;;;;;1.93;1.60;;;;;;;13.46;68.35;99486.63;5083224;28;20762;-75
2021/05/15 07:58:12;;;;;;;3.40;2.00;;;;;;;13.61;69.40;99486.81;5081671;28;20681;-77
2021/05/15 08:00:38;;;;;;;1.67;1.20;;;;;;;13.69;67.37;99484.69;5083254;28;20213;-77
2021/05/15 08:03:05;;;;;;;2.03;1.40;;;;;;;13.77;68.01;99487.78;5082182;28;20236;-75
2021/05/15 08:05:30;;;;;;;1.97;1.40;;;;;;;13.55;66.52;99487.09;5081849;28;20696;-75
2021/05/15 08:07:56;;;;;;;1.37;1.27;;;;;;;13.34;66.96;99497.66;5081778;28;20225;-75
2021/05/15 08:10:22;;;;;;;2.03;1.60;;;;;;;13.09;67.51;99501.34;5083300;28;20604;-74
2021/05/15 08:12:49;;;;;;;1.67;1.40;;;;;;;13.07;67.97;99497.09;5081935;28;20217;-74
2021/05/15 08:15:15;;;;;;;1.50;1.40;;;;;;;13.07;69.53;99484.84;5082332;28;20325;-74
2021/05/15 08:17:41;;;;;;;4.20;1.43;;;;;;;13.06;68.49;99488.41;5082228;28;20274;-75
2021/05/15 08:20:08;;;;;;;1.30;1.20;;;;;;;13.05;68.44;99494.53;5082914;28;20261;-74
2021/05/15 08:22:34;;;;;;;1.03;1.03;;;;;;;13.11;68.57;99488.19;5083160;28;20233;-74
2021/05/15 08:25:00;;;;;;;1.73;1.47;;;;;;;13.23;68.72;99492.03;5082968;28;20677;-73
2021/05/15 08:27:26;;;;;;;2.47;1.37;;;;;;;13.36;69.31;99489.72;5082524;28;20206;-73
2021/05/15 08:29:53;;;;;;;1.47;1.20;;;;;;;13.30;66.69;99488.25;5082704;28;20210;-73
2021/05/15 08:32:20;;;;;;;1.50;1.40;;;;;;;13.12;66.87;99479.38;5084166;28;20209;-73
2021/05/15 08:34:46;;;;;;;1.40;1.20;;;;;;;13.04;67.22;99473.63;5083940;28;20207;-73
2021/05/15 08:37:12;;;;;;;1.83;1.10;;;;;;;13.18;69.82;99471.28;5085805;28;20256;-75
2021/05/15 08:39:38;;;;;;;1.70;1.30;;;;;;;13.34;68.81;99475.81;5084717;28;20222;-74
2021/05/15 08:42:04;;;;;;;1.43;1.00;;;;;;;13.42;68.02;99474.56;5085093;28;20237;-75
2021/05/15 08:44:32;;;;;;;1.40;1.20;;;;;;;13.42;67.98;99466.72;5083672;28;20262;-74
2021/05/15 08:46:59;;;;;;;0.90;0.90;;;;;;;13.55;68.37;99469.59;5083820;28;20236;-73
2021/05/15 08:49:26;;;;;;;1.20;1.10;;;;;;;13.68;67.87;99460.22;5083452;28;20256;-76
2021/05/15 08:51:53;;;;;;;1.23;1.00;;;;;;;13.87;67.99;99468.09;5083025;28;20205;-74
2021/05/15 08:54:20;;;;;;;1.20;1.10;;;;;;;13.76;65.19;99459.03;5083322;28;20202;-73
2021/05/15 08:56:48;;;;;;;1.20;1.10;;;;;;;13.92;65.38;99467.00;5083281;28;20210;-75
2021/05/15 08:59:14;;;;;;;1.20;1.10;;;;;;;13.96;66.31;99458.91;5081739;28;20249;-75
2021/05/15 09:01:42;;;;;;;1.70;1.50;;;;;;;13.99;65.93;99458.75;5081713;28;20709;-74
2021/05/15 09:04:08;;;;;;;9.10;3.00;;;;;;;14.31;67.43;99464.19;5082598;28;20239;-75
2021/05/15 09:06:34;;;;;;;0.90;0.90;;;;;;;14.41;64.19;99449.69;5086175;28;20580;-75
2021/05/15 09:09:00;;;;;;;1.10;0.97;;;;;;;14.63;64.74;99451.25;5086541;28;20226;-75
2021/05/15 09:11:26;;;;;;;1.10;0.90;;;;;;;14.51;61.03;99444.81;5086092;28;20208;-76
2021/05/15 09:13:53;;;;;;;0.73;0.70;;;;;;;14.37;62.03;99449.91;5084697;28;20207;-74
2021/05/15 09:16:20;;;;;;;3.90;1.03;;;;;;;14.52;64.12;99449.13;5085371;28;21176;-75
2021/05/15 09:18:46;;;;;;;2.53;1.20;;;;;;;14.49;63.42;99449.28;5084919;28;20228;-75
2021/05/15 09:21:15;;;;;;;1.10;1.00;;;;;;;14.62;62.96;99436.41;5085644;28;20221;-75
2021/05/15 09:23:45;;;;;;;0.97;0.67;;;;;;;14.41;61.47;99435.69;5084890;28;20211;-74
2021/05/15 09:26:13;;;;;;;1.53;1.17;;;;;;;14.49;63.12;99444.03;5086489;28;20211;-75
2021/05/15 09:28:42;;;;;;;1.43;1.00;;;;;;;13.92;65.39;99431.13;5085285;28;20905;-75
2021/05/15 09:31:12;;;;;;;2.17;1.00;;;;;;;13.44;68.02;99438.66;5085646;28;20206;-75
2021/05/15 09:33:39;;;;;;;1.47;1.20;;;;;;;13.43;68.11;99429.06;5085283;28;20579;-74
2021/05/15 09:36:23;;;;;;;0.90;0.90;;;;;;;13.18;66.44;99425.84;5085704;28;20212;-74
2021/05/15 09:39:02;;;;;;;4.13;1.03;;;;;;;13.01;67.37;99434.50;5085344;28;20268;-74
2021/05/15 09:41:32;;;;;;;0.83;0.70;;;;;;;13.29;67.47;99423.59;5085419;28;20259;-75
2021/05/15 09:43:58;;;;;;;1.17;0.50;;;;;;;13.29;63.51;99418.34;5085286;28;20292;-77
2021/05/15 09:46:25;;;;;;;0.60;0.60;;;;;;;13.22;64.73;99423.03;5084418;28;20216;-76
2021/05/15 09:48:52;;;;;;;1.73;0.93;;;;;;;13.17;66.09;99416.31;5084033;28;20222;-75
2021/05/15 09:51:18;;;;;;;2.00;1.03;;;;;;;13.30;67.20;99420.09;5085139;28;20205;-74
2021/05/15 09:53:45;;;;;;;0.80;0.80;;;;;;;13.31;69.37;99406.06;5085402;28;20264;-76
2021/05/15 09:56:12;;;;;;;2.57;0.83;;;;;;;13.43;68.55;99407.25;5084419;28;20230;-76
2021/05/15 09:58:40;;;;;;;1.80;0.90;;;;;;;13.29;68.72;99406.13;5084931;28;20231;-74
2021/05/15 10:01:06;;;;;;;1.43;0.90;;;;;;;13.13;68.64;99405.13;5085060;28;20211;-76
2021/05/15 10:03:33;;;;;;;1.23;0.93;;;;;;;13.09;69.41;99406.19;5084393;28;20697;-75
2021/05/15 10:06:04;;;;;;;1.10;1.00;;;;;;;13.24;69.38;99397.63;5085151;28;20210;-73
2021/05/15 10:08:31;;;;;;;0.90;0.90;;;;;;;13.46;70.12;99394.84;5084747;28;20279;-77
2021/05/15 10:10:58;;;;;;;1.10;1.00;;;;;;;13.61;68.37;99393.25;5084985;28;21188;-74
2021/05/15 10:13:24;;;;;;;1.93;0.80;;;;;;;13.84;68.79;99391.31;5084270;28;20630;-78
2021/05/15 10:15:51;;;;;;;1.00;1.00;;;;;;;13.83;68.46;99397.47;5084129;28;20232;-76
2021/05/15 10:18:17;;;;;;;4.80;1.10;;;;;;;14.22;68.17;99399.03;5084359;28;20256;-75
2021/05/15 10:20:44;;;;;;;24.73;5.53;;;;;;;14.58;65.50;99383.19;5083470;28;20570;-77
2021/05/15 10:23:18;;;;;;;1.50;0.83;;;;;;;14.76;61.66;99385.78;5084301;28;20225;-77
2021/05/15 10:25:45;;;;;;;1.40;0.60;;;;;;;14.86;61.42;99382.56;5084609;28;20635;-77
2021/05/15 10:28:12;;;;;;;0.40;0.40;;;;;;;14.46;57.15;99376.75;5084501;28;20227;-77
2021/05/15 10:30:38;;;;;;;0.57;0.40;;;;;;;14.50;57.90;99393.22;5084712;28;20197;-77
2021/05/15 10:33:09;;;;;;;0.93;0.60;;;;;;;14.66;59.19;99388.03;5083929;28;20230;-77
2021/05/15 10:35:40;;;;;;;0.50;0.50;;;;;;;14.74;57.68;99371.88;5083916;28;20214;-76
2021/05/15 10:38:09;;;;;;;0.60;0.60;;;;;;;14.65;57.32;99374.06;5084673;28;20708;-76
2021/05/15 10:40:46;;;;;;;0.50;0.50;;;;;;;14.63;58.70;99367.19;5084771;28;20214;-76
2021/05/15 10:43:14;;;;;;;1.00;0.90;;;;;;;14.60;59.46;99367.34;5084968;28;20878;-77
2021/05/15 10:45:42;;;;;;;1.33;0.70;;;;;;;14.34;60.59;99379.19;5083798;28;20277;-77
2021/05/15 10:48:12;;;;;;;0.50;0.50;;;;;;;14.36;62.22;99382.56;5084151;28;20754;-76
2021/05/15 10:50:48;;;;;;;0.70;0.70;;;;;;;14.29;62.54;99384.66;5084184;28;20652;-77
2021/05/15 10:53:19;;;;;;;1.23;0.80;;;;;;;14.13;62.38;99384.59;5083949;28;20207;-77
2021/05/15 10:56:00;;;;;;;1.40;0.90;;;;;;;14.04;63.38;99388.53;5084252;28;20241;-77
2021/05/15 10:58:42;;;;;;;2.40;0.70;;;;;;;13.78;60.48;99396.84;5084453;28;20254;-77
2021/05/15 11:01:10;;;;;;;1.13;0.47;;;;;;;13.79;62.51;99393.28;5083946;28;20537;-76
2021/05/15 11:03:36;;;;;;;0.87;0.60;;;;;;;13.64;63.08;99405.41;5083421;28;20234;-77
2021/05/15 11:06:12;;;;;;;0.90;0.90;;;;;;;13.45;63.32;99395.75;5084475;28;20631;-77
2021/05/15 11:08:38;;;;;;;0.70;0.67;;;;;;;13.27;64.99;99389.59;5084162;28;20605;-76
2021/05/15 11:11:06;;;;;;;1.03;0.67;;;;;;;13.26;67.63;99387.91;5083699;28;20241;-76
2021/05/15 11:13:44;;;;;;;0.80;0.67;;;;;;;13.22;68.08;99375.00;5084298;28;20209;-77
2021/05/15 11:16:11;;;;;;;1.80;0.70;;;;;;;13.74;68.01;99371.72;5083820;28;20211;-77
2021/05/15 11:18:37;;;;;;;0.63;0.60;;;;;;;14.04;66.91;99366.69;5083391;28;20234;-77
2021/05/15 11:21:05;;;;;;;0.60;0.60;;;;;;;14.94;68.00;99355.03;5083124;28;20240;-77
2021/05/15 11:23:31;;;;;;;0.57;0.50;;;;;;;15.30;58.13;99344.25;5083737;28;20301;-77
2021/05/15 11:25:59;;;;;;;0.40;0.40;;;;;;;15.96;59.69;99334.41;5083645;28;20261;-77